West Kingston, Rhode Island
Current Conditions -  °F | °C
As of 10:53 PM on Wednesday 28 Jan 2015 (Local Time) from KUUU Reporting Station
Clear Clear  
Wind Chill: 11°   Ceiling: Unl
Heat Index: 21°   Visibility: 10mi
Dew Point:   Wind: 8mph
Humidity: 53%   Direction: 360°N
Pressure: 30.21"   Gusts: NA
Location:  41.48°N, 71.55°W
Report Text: KUUU 290353Z AUTO 36007KT 10SM CLR M06/M14 A3021 RMK AO2 SLP230 T10611144
Loading
Personal Weather Stations






























Interactive Weather Map New forecast layout! Learn more

10-Day Weather Forecast

Advertisements
Track Severe Weather on mobile